sensor_id;sensor_type;location;lat;lon;timestamp;pressure;altitude;pressure_sealevel;temperature
60003;BMP280;46322;52.018;8.702;2023-06-22T00:04:10;100609.28;;;24.51
60003;BMP280;46322;52.018;8.702;2023-06-22T00:09:10;100598.28;;;24.00
60003;BMP280;46322;52.018;8.702;2023-06-22T00:14:10;100615.25;;;24.69
60003;BMP280;46322;52.018;8.702;2023-06-22T00:19:10;100597.91;;;23.13
60003;BMP280;46322;52.018;8.702;2023-06-22T00:24:10;100592.38;;;23.72
60003;BMP280;46322;52.018;8.702;2023-06-22T00:29:11;100590.75;;;24.46
60003;BMP280;46322;52.018;8.702;2023-06-22T00:34:11;100587.44;;;23.63
60003;BMP280;46322;52.018;8.702;2023-06-22T00:39:11;100586.16;;;24.12
60003;BMP280;46322;52.018;8.702;2023-06-22T00:44:11;100585.50;;;24.01
60003;BMP280;46322;52.018;8.702;2023-06-22T00:49:11;100576.31;;;24.83
60003;BMP280;46322;52.018;8.702;2023-06-22T00:54:11;100570.41;;;24.00
60003;BMP280;46322;52.018;8.702;2023-06-22T00:59:11;100549.19;;;24.83
60003;BMP280;46322;52.018;8.702;2023-06-22T01:04:11;100562.69;;;24.59
60003;BMP280;46322;52.018;8.702;2023-06-22T01:09:15;100554.22;;;23.59
60003;BMP280;46322;52.018;8.702;2023-06-22T01:14:16;100556.66;;;24.48
60003;BMP280;46322;52.018;8.702;2023-06-22T01:19:29;100556.22;;;24.80
60003;BMP280;46322;52.018;8.702;2023-06-22T01:24:41;100553.50;;;23.10
60003;BMP280;46322;52.018;8.702;2023-06-22T01:29:45;100557.22;;;24.05
60003;BMP280;46322;52.018;8.702;2023-06-22T01:34:45;100561.75;;;24.16
60003;BMP280;46322;52.018;8.702;2023-06-22T01:39:46;100569.34;;;24.24
60003;BMP280;46322;52.018;8.702;2023-06-22T01:44:46;100563.44;;;23.24
60003;BMP280;46322;52.018;8.702;2023-06-22T01:49:47;100565.38;;;23.64
60003;BMP280;46322;52.018;8.702;2023-06-22T01:54:47;100554.63;;;24.25
60003;BMP280;46322;52.018;8.702;2023-06-22T02:00:21;100568.84;;;23.68
60003;BMP280;46322;52.018;8.702;2023-06-22T02:05:15;100557.88;;;23.79
60003;BMP280;46322;52.018;8.702;2023-06-22T02:10:16;100556.84;;;23.70
60003;BMP280;46322;52.018;8.702;2023-06-22T02:15:19;100564.03;;;23.83
60003;BMP280;46322;52.018;8.702;2023-06-22T02:20:19;100572.28;;;24.06
60003;BMP280;46322;52.018;8.702;2023-06-22T02:25:19;100559.78;;;23.82
60003;BMP280;46322;52.018;8.702;2023-06-22T02:30:20;100569.97;;;23.67
60003;BMP280;46322;52.018;8.702;2023-06-22T02:35:20;100576.22;;;23.64
60003;BMP280;46322;52.018;8.702;2023-06-22T02:40:20;100574.84;;;24.17
60003;BMP280;46322;52.018;8.702;2023-06-22T02:45:20;100581.50;;;24.43
60003;BMP280;46322;52.018;8.702;2023-06-22T02:50:20;100582.31;;;24.97
60003;BMP280;46322;52.018;8.702;2023-06-22T02:55:20;100581.25;;;24.61
60003;BMP280;46322;52.018;8.702;2023-06-22T03:00:20;100585.47;;;24.35
60003;BMP280;46322;52.018;8.702;2023-06-22T03:05:21;100582.50;;;24.56
60003;BMP280;46322;52.018;8.702;2023-06-22T03:10:21;100589.31;;;24.37
60003;BMP280;46322;52.018;8.702;2023-06-22T03:15:21;100572.38;;;23.62
60003;BMP280;46322;52.018;8.702;2023-06-22T03:20:21;100568.81;;;24.36
60003;BMP280;46322;52.018;8.702;2023-06-22T03:25:21;100564.53;;;23.71
60003;BMP280;46322;52.018;8.702;2023-06-22T03:30:21;100564.53;;;23.75
60003;BMP280;46322;52.018;8.702;2023-06-22T03:35:21;100560.38;;;23.63
60003;BMP280;46322;52.018;8.702;2023-06-22T03:40:21;100562.81;;;23.91
60003;BMP280;46322;52.018;8.702;2023-06-22T03:45:22;100570.63;;;23.82
60003;BMP280;46322;52.018;8.702;2023-06-22T03:50:22;100576.53;;;24.08
60003;BMP280;46322;52.018;8.702;2023-06-22T03:55:22;100574.84;;;24.17
60003;BMP280;46322;52.018;8.702;2023-06-22T04:00:22;100570.41;;;24.34
60003;BMP280;46322;52.018;8.702;2023-06-22T04:05:23;100560.53;;;24.17
60003;BMP280;46322;52.018;8.702;2023-06-22T04:10:23;100566.84;;;24.06
60003;BMP280;46322;52.018;8.702;2023-06-22T04:15:23;100568.13;;;24.29
60003;BMP280;46322;52.018;8.702;2023-06-22T04:20:23;100571.31;;;24.20
60003;BMP280;46322;52.018;8.702;2023-06-22T04:25:23;100583.28;;;24.26
60003;BMP280;46322;52.018;8.702;2023-06-22T04:30:23;100578.53;;;24.88
60003;BMP280;46322;52.018;8.702;2023-06-22T04:35:24;100575.09;;;24.87
60003;BMP280;46322;52.018;8.702;2023-06-22T04:40:24;100572.56;;;25.23
60003;BMP280;46322;52.018;8.702;2023-06-22T04:45:24;100573.19;;;25.07
60003;BMP280;46322;52.018;8.702;2023-06-22T04:50:24;100569.19;;;25.39
60003;BMP280;46322;52.018;8.702;2023-06-22T04:55:24;100566.25;;;25.06
60003;BMP280;46322;52.018;8.702;2023-06-22T05:00:25;100549.66;;;24.51
60003;BMP280;46322;52.018;8.702;2023-06-22T05:05:25;100563.19;;;25.28
60003;BMP280;46322;52.018;8.702;2023-06-22T05:10:25;100554.75;;;25.65
60003;BMP280;46322;52.018;8.702;2023-06-22T05:15:26;100550.56;;;25.61
60003;BMP280;46322;52.018;8.702;2023-06-22T05:20:26;100563.88;;;25.75
60003;BMP280;46322;52.018;8.702;2023-06-22T05:25:26;100556.97;;;26.26
60003;BMP280;46322;52.018;8.702;2023-06-22T05:30:26;100558.88;;;26.09
60003;BMP280;46322;52.018;8.702;2023-06-22T05:35:26;100553.53;;;26.42
60003;BMP280;46322;52.018;8.702;2023-06-22T05:40:27;100550.25;;;25.94
60003;BMP280;46322;52.018;8.702;2023-06-22T05:45:27;100545.47;;;25.43
60003;BMP280;46322;52.018;8.702;2023-06-22T05:50:27;100548.88;;;25.86
60003;BMP280;46322;52.018;8.702;2023-06-22T05:55:27;100551.69;;;26.39
60003;BMP280;46322;52.018;8.702;2023-06-22T06:00:27;100557.88;;;26.71
60003;BMP280;46322;52.018;8.702;2023-06-22T06:05:27;100561.63;;;26.61
60003;BMP280;46322;52.018;8.702;2023-06-22T06:10:27;100563.53;;;26.28
60003;BMP280;46322;52.018;8.702;2023-06-22T06:15:28;100562.97;;;26.17
60003;BMP280;46322;52.018;8.702;2023-06-22T06:20:28;100559.72;;;26.58
60003;BMP280;46322;52.018;8.702;2023-06-22T06:25:28;100553.91;;;27.79
60003;BMP280;46322;52.018;8.702;2023-06-22T06:30:28;100560.75;;;26.32
60003;BMP280;46322;52.018;8.702;2023-06-22T06:35:28;100562.47;;;26.74
60003;BMP280;46322;52.018;8.702;2023-06-22T06:40:28;100561.03;;;26.54
60003;BMP280;46322;52.018;8.702;2023-06-22T06:45:29;100566.72;;;27.37
60003;BMP280;46322;52.018;8.702;2023-06-22T06:50:29;100560.31;;;27.43
60003;BMP280;46322;52.018;8.702;2023-06-22T06:55:29;100546.91;;;27.78
60003;BMP280;46322;52.018;8.702;2023-06-22T07:00:30;100545.63;;;28.58
60003;BMP280;46322;52.018;8.702;2023-06-22T07:05:30;100557.28;;;28.33
60003;BMP280;46322;52.018;8.702;2023-06-22T07:10:30;100549.47;;;26.50
60003;BMP280;46322;52.018;8.702;2023-06-22T07:15:30;100549.50;;;27.69
60003;BMP280;46322;52.018;8.702;2023-06-22T07:20:30;100554.41;;;26.87
60003;BMP280;46322;52.018;8.702;2023-06-22T07:25:30;100544.00;;;26.98
60003;BMP280;46322;52.018;8.702;2023-06-22T07:30:31;100534.38;;;27.80
60003;BMP280;46322;52.018;8.702;2023-06-22T07:35:31;100543.72;;;27.25
60003;BMP280;46322;52.018;8.702;2023-06-22T07:40:32;100548.56;;;28.39
60003;BMP280;46322;52.018;8.702;2023-06-22T07:45:32;100542.78;;;27.16
60003;BMP280;46322;52.018;8.702;2023-06-22T07:50:32;100539.88;;;28.06
60003;BMP280;46322;52.018;8.702;2023-06-22T07:55:33;100533.06;;;27.72
60003;BMP280;46322;52.018;8.702;2023-06-22T08:00:33;100536.03;;;27.90
60003;BMP280;46322;52.018;8.702;2023-06-22T08:05:33;100523.94;;;28.29
60003;BMP280;46322;52.018;8.702;2023-06-22T08:10:33;100518.72;;;27.97
60003;BMP280;46322;52.018;8.702;2023-06-22T08:15:34;100525.56;;;28.14
60003;BMP280;46322;52.018;8.702;2023-06-22T08:20:34;100513.69;;;28.21
60003;BMP280;46322;52.018;8.702;2023-06-22T08:25:34;100532.44;;;29.13
60003;BMP280;46322;52.018;8.702;2023-06-22T08:30:35;100531.03;;;29.30
60003;BMP280;46322;52.018;8.702;2023-06-22T08:35:35;100520.13;;;28.14
60003;BMP280;46322;52.018;8.702;2023-06-22T08:40:35;100500.44;;;29.13
60003;BMP280;46322;52.018;8.702;2023-06-22T08:45:35;100481.84;;;28.99
60003;BMP280;46322;52.018;8.702;2023-06-22T08:50:35;100492.13;;;29.17
60003;BMP280;46322;52.018;8.702;2023-06-22T08:55:35;100493.22;;;29.90
60003;BMP280;46322;52.018;8.702;2023-06-22T09:00:36;100490.59;;;30.36
60003;BMP280;46322;52.018;8.702;2023-06-22T09:05:36;100496.28;;;29.92
60003;BMP280;46322;52.018;8.702;2023-06-22T09:10:37;100477.09;;;29.83
60003;BMP280;46322;52.018;8.702;2023-06-22T09:15:37;100457.84;;;29.47
60003;BMP280;46322;52.018;8.702;2023-06-22T09:20:37;100457.94;;;30.42
60003;BMP280;46322;52.018;8.702;2023-06-22T09:25:37;100451.91;;;29.88
60003;BMP280;46322;52.018;8.702;2023-06-22T09:30:37;100467.53;;;30.73
60003;BMP280;46322;52.018;8.702;2023-06-22T09:35:37;100462.72;;;31.19
60003;BMP280;46322;52.018;8.702;2023-06-22T09:40:37;100471.75;;;30.65
60003;BMP280;46322;52.018;8.702;2023-06-22T09:45:38;100455.06;;;29.69
60003;BMP280;46322;52.018;8.702;2023-06-22T09:50:38;100452.16;;;30.49
60003;BMP280;46322;52.018;8.702;2023-06-22T09:55:38;100449.72;;;30.23
60003;BMP280;46322;52.018;8.702;2023-06-22T10:00:38;100450.81;;;31.22
60003;BMP280;46322;52.018;8.702;2023-06-22T10:05:38;100436.34;;;31.64
60003;BMP280;46322;52.018;8.702;2023-06-22T10:10:38;100428.41;;;33.16
60003;BMP280;46322;52.018;8.702;2023-06-22T10:15:38;100434.88;;;33.13
60003;BMP280;46322;52.018;8.702;2023-06-22T10:20:39;100437.53;;;32.64
60003;BMP280;46322;52.018;8.702;2023-06-22T10:25:39;100417.09;;;32.79
60003;BMP280;46322;52.018;8.702;2023-06-22T10:30:39;100427.03;;;32.91
60003;BMP280;46322;52.018;8.702;2023-06-22T10:35:40;100429.34;;;31.54
60003;BMP280;46322;52.018;8.702;2023-06-22T10:40:40;100433.53;;;32.94
60003;BMP280;46322;52.018;8.702;2023-06-22T10:45:40;100419.41;;;33.16
60003;BMP280;46322;52.018;8.702;2023-06-22T10:50:40;100411.38;;;33.67
60003;BMP280;46322;52.018;8.702;2023-06-22T10:55:40;100390.78;;;33.22
60003;BMP280;46322;52.018;8.702;2023-06-22T11:00:40;100375.22;;;33.54
60003;BMP280;46322;52.018;8.702;2023-06-22T11:05:40;100372.31;;;33.63
60003;BMP280;46322;52.018;8.702;2023-06-22T11:10:40;100360.03;;;33.04
60003;BMP280;46322;52.018;8.702;2023-06-22T11:15:41;100363.25;;;34.60
60003;BMP280;46322;52.018;8.702;2023-06-22T11:20:41;100360.38;;;33.26
60003;BMP280;46322;52.018;8.702;2023-06-22T11:25:41;100342.81;;;33.84
60003;BMP280;46322;52.018;8.702;2023-06-22T11:30:42;100331.00;;;33.78
60003;BMP280;46322;52.018;8.702;2023-06-22T11:35:42;100329.38;;;34.17
60003;BMP280;46322;52.018;8.702;2023-06-22T11:40:42;100330.50;;;33.79
60003;BMP280;46322;52.018;8.702;2023-06-22T11:45:42;100318.84;;;34.16
60003;BMP280;46322;52.018;8.702;2023-06-22T11:50:42;100306.84;;;33.62
60003;BMP280;46322;52.018;8.702;2023-06-22T11:55:43;100290.91;;;33.05
60003;BMP280;46322;52.018;8.702;2023-06-22T12:00:43;100295.06;;;32.80
60003;BMP280;46322;52.018;8.702;2023-06-22T12:05:43;100278.72;;;33.26
60003;BMP280;46322;52.018;8.702;2023-06-22T13:35:24;100246.47;;;27.18
60003;BMP280;46322;52.018;8.702;2023-06-22T13:40:24;100259.88;;;26.99
60003;BMP280;46322;52.018;8.702;2023-06-22T13:45:24;100269.56;;;26.59
60003;BMP280;46322;52.018;8.702;2023-06-22T13:50:24;100303.31;;;26.16
60003;BMP280;46322;52.018;8.702;2023-06-22T13:55:24;100354.88;;;25.15
60003;BMP280;46322;52.018;8.702;2023-06-22T14:00:24;100297.94;;;25.84
60003;BMP280;46322;52.018;8.702;2023-06-22T14:05:25;100293.06;;;25.43
60003;BMP280;46322;52.018;8.702;2023-06-22T14:10:25;100284.97;;;25.75
60003;BMP280;46322;52.018;8.702;2023-06-22T14:15:25;100245.75;;;25.44
60003;BMP280;46322;52.018;8.702;2023-06-22T14:20:25;100215.09;;;24.55
60003;BMP280;46322;52.018;8.702;2023-06-22T14:25:25;100161.31;;;24.34
60003;BMP280;46322;52.018;8.702;2023-06-22T14:30:26;100183.25;;;23.50
60003;BMP280;46322;52.018;8.702;2023-06-22T14:35:26;100190.59;;;23.76
60003;BMP280;46322;52.018;8.702;2023-06-22T14:40:26;100159.75;;;23.93
60003;BMP280;46322;52.018;8.702;2023-06-22T14:45:26;100116.63;;;23.59
60003;BMP280;46322;52.018;8.702;2023-06-22T14:50:26;100080.63;;;23.62
60003;BMP280;46322;52.018;8.702;2023-06-22T14:55:26;100058.69;;;23.57
60003;BMP280;46322;52.018;8.702;2023-06-22T15:00:26;100066.84;;;23.96
60003;BMP280;46322;52.018;8.702;2023-06-22T15:05:26;100068.03;;;24.87
60003;BMP280;46322;52.018;8.702;2023-06-22T15:10:27;100078.63;;;24.98
60003;BMP280;46322;52.018;8.702;2023-06-22T15:15:27;100069.09;;;25.54
60003;BMP280;46322;52.018;8.702;2023-06-22T15:20:27;100049.13;;;25.00
60003;BMP280;46322;52.018;8.702;2023-06-22T15:25:27;100051.25;;;25.53
60003;BMP280;46322;52.018;8.702;2023-06-22T15:30:27;100045.00;;;26.23
60003;BMP280;46322;52.018;8.702;2023-06-22T15:35:27;100043.81;;;26.75
60003;BMP280;46322;52.018;8.702;2023-06-22T15:40:27;100041.56;;;27.95
60003;BMP280;46322;52.018;8.702;2023-06-22T15:45:28;100057.56;;;28.55
60003;BMP280;46322;52.018;8.702;2023-06-22T15:50:28;100007.56;;;29.31
60003;BMP280;46322;52.018;8.702;2023-06-22T15:55:28;99988.63;;;31.96
60003;BMP280;46322;52.018;8.702;2023-06-22T16:00:28;99975.56;;;29.82
60003;BMP280;46322;52.018;8.702;2023-06-22T16:05:28;99960.16;;;28.73
60003;BMP280;46322;52.018;8.702;2023-06-22T16:10:28;99953.41;;;27.80
60003;BMP280;46322;52.018;8.702;2023-06-22T16:15:28;99928.75;;;27.22
60003;BMP280;46322;52.018;8.702;2023-06-22T16:20:28;99919.63;;;27.06
60003;BMP280;46322;52.018;8.702;2023-06-22T16:25:29;99924.63;;;26.14
60003;BMP280;46322;52.018;8.702;2023-06-22T16:30:29;99929.88;;;26.55
60003;BMP280;46322;52.018;8.702;2023-06-22T16:35:29;99936.69;;;26.25
60003;BMP280;46322;52.018;8.702;2023-06-22T16:40:29;99922.22;;;26.28
60003;BMP280;46322;52.018;8.702;2023-06-22T16:45:29;99907.88;;;25.77
60003;BMP280;46322;52.018;8.702;2023-06-22T16:50:29;99908.22;;;25.67
60003;BMP280;46322;52.018;8.702;2023-06-22T16:55:30;99908.00;;;25.61
60003;BMP280;46322;52.018;8.702;2023-06-22T17:00:30;99913.09;;;25.17
60003;BMP280;46322;52.018;8.702;2023-06-22T17:05:31;99945.94;;;25.48
60003;BMP280;46322;52.018;8.702;2023-06-22T17:10:31;100015.81;;;26.15
60003;BMP280;46322;52.018;8.702;2023-06-22T17:15:32;100054.91;;;26.17
60003;BMP280;46322;52.018;8.702;2023-06-22T17:20:32;100084.97;;;25.40
60003;BMP280;46322;52.018;8.702;2023-06-22T17:25:32;100067.25;;;25.64
60003;BMP280;46322;52.018;8.702;2023-06-22T17:30:33;100031.78;;;24.97
60003;BMP280;46322;52.018;8.702;2023-06-22T17:35:33;100059.38;;;24.92
60003;BMP280;46322;52.018;8.702;2023-06-22T17:40:33;100074.41;;;24.97
60003;BMP280;46322;52.018;8.702;2023-06-22T17:45:43;100030.19;;;25.45
60003;BMP280;46322;52.018;8.702;2023-06-22T17:50:43;99994.88;;;24.83
60003;BMP280;46322;52.018;8.702;2023-06-22T17:55:43;99992.84;;;24.39
60003;BMP280;46322;52.018;8.702;2023-06-22T18:00:45;99987.72;;;24.45
60003;BMP280;46322;52.018;8.702;2023-06-22T18:05:46;99999.44;;;24.38
60003;BMP280;46322;52.018;8.702;2023-06-22T18:10:46;99971.63;;;24.18
60003;BMP280;46322;52.018;8.702;2023-06-22T18:15:47;99979.66;;;24.57
60003;BMP280;46322;52.018;8.702;2023-06-22T18:20:47;99937.78;;;24.10
60003;BMP280;46322;52.018;8.702;2023-06-22T18:25:48;99914.03;;;24.33
60003;BMP280;46322;52.018;8.702;2023-06-22T18:30:48;99926.91;;;24.29
60003;BMP280;46322;52.018;8.702;2023-06-22T18:35:49;99904.94;;;23.91
60003;BMP280;46322;52.018;8.702;2023-06-22T18:40:49;99898.09;;;24.03
60003;BMP280;46322;52.018;8.702;2023-06-22T18:45:50;99884.59;;;23.83
60003;BMP280;46322;52.018;8.702;2023-06-22T18:50:50;99880.25;;;24.38
60003;BMP280;46322;52.018;8.702;2023-06-22T18:55:51;99873.94;;;23.76
60003;BMP280;46322;52.018;8.702;2023-06-22T19:00:52;99851.00;;;23.81
60003;BMP280;46322;52.018;8.702;2023-06-22T19:05:52;99849.66;;;23.89
60003;BMP280;46322;52.018;8.702;2023-06-22T19:10:52;99852.91;;;23.64
60003;BMP280;46322;52.018;8.702;2023-06-22T19:15:53;99855.59;;;24.00
60003;BMP280;46322;52.018;8.702;2023-06-22T19:20:58;99867.06;;;24.24
60003;BMP280;46322;52.018;8.702;2023-06-22T19:25:59;99873.31;;;24.04
60003;BMP280;46322;52.018;8.702;2023-06-22T19:31:00;99861.97;;;24.26
60003;BMP280;46322;52.018;8.702;2023-06-22T19:36:01;99865.63;;;24.52
60003;BMP280;46322;52.018;8.702;2023-06-22T19:41:02;99865.69;;;24.48
60003;BMP280;46322;52.018;8.702;2023-06-22T19:46:02;99852.66;;;25.42
60003;BMP280;46322;52.018;8.702;2023-06-22T19:51:05;99840.31;;;24.71
60003;BMP280;46322;52.018;8.702;2023-06-22T19:56:06;99852.31;;;24.57
60003;BMP280;46322;52.018;8.702;2023-06-22T20:01:06;99867.47;;;24.55
60003;BMP280;46322;52.018;8.702;2023-06-22T20:06:13;99864.66;;;24.10
60003;BMP280;46322;52.018;8.702;2023-06-22T20:11:13;99843.06;;;24.06
60003;BMP280;46322;52.018;8.702;2023-06-22T20:16:14;99846.47;;;24.10
60003;BMP280;46322;52.018;8.702;2023-06-22T20:21:14;99831.75;;;24.11
60003;BMP280;46322;52.018;8.702;2023-06-22T20:26:15;99818.22;;;24.11
60003;BMP280;46322;52.018;8.702;2023-06-22T20:31:15;99816.34;;;24.08
60003;BMP280;46322;52.018;8.702;2023-06-22T20:36:16;99806.50;;;24.47
60003;BMP280;46322;52.018;8.702;2023-06-22T20:41:16;99795.69;;;24.14
60003;BMP280;46322;52.018;8.702;2023-06-22T20:46:16;99801.63;;;24.41
60003;BMP280;46322;52.018;8.702;2023-06-22T20:51:16;99801.50;;;24.45
60003;BMP280;46322;52.018;8.702;2023-06-22T20:56:16;99803.41;;;23.99
60003;BMP280;46322;52.018;8.702;2023-06-22T21:01:16;99812.53;;;24.38
60003;BMP280;46322;52.018;8.702;2023-06-22T21:06:16;99820.16;;;24.11
60003;BMP280;46322;52.018;8.702;2023-06-22T21:11:16;99801.78;;;23.70
60003;BMP280;46322;52.018;8.702;2023-06-22T21:16:17;99807.50;;;23.91
60003;BMP280;46322;52.018;8.702;2023-06-22T21:21:17;99814.91;;;24.20
60003;BMP280;46322;52.018;8.702;2023-06-22T21:26:17;99833.34;;;23.76
60003;BMP280;46322;52.018;8.702;2023-06-22T21:31:17;99828.38;;;24.39
60003;BMP280;46322;52.018;8.702;2023-06-22T21:36:17;99803.81;;;23.82
60003;BMP280;46322;52.018;8.702;2023-06-22T21:41:18;99776.91;;;24.07
60003;BMP280;46322;52.018;8.702;2023-06-22T21:46:18;99793.25;;;24.03
60003;BMP280;46322;52.018;8.702;2023-06-22T21:51:18;99786.75;;;23.49
60003;BMP280;46322;52.018;8.702;2023-06-22T21:56:18;99788.91;;;23.57
60003;BMP280;46322;52.018;8.702;2023-06-22T22:01:18;99792.81;;;23.37
60003;BMP280;46322;52.018;8.702;2023-06-22T22:06:18;99804.25;;;23.80
60003;BMP280;46322;52.018;8.702;2023-06-22T22:11:18;99803.91;;;23.42
60003;BMP280;46322;52.018;8.702;2023-06-22T22:16:19;99811.00;;;23.36
60003;BMP280;46322;52.018;8.702;2023-06-22T22:21:19;99821.06;;;23.36
60003;BMP280;46322;52.018;8.702;2023-06-22T22:26:19;99812.84;;;23.19
60003;BMP280;46322;52.018;8.702;2023-06-22T22:31:19;99814.81;;;23.91
60003;BMP280;46322;52.018;8.702;2023-06-22T22:36:19;99820.50;;;23.80
60003;BMP280;46322;52.018;8.702;2023-06-22T22:41:19;99817.25;;;23.85
60003;BMP280;46322;52.018;8.702;2023-06-22T22:46:19;99805.78;;;23.45
60003;BMP280;46322;52.018;8.702;2023-06-22T22:51:20;99802.19;;;23.32
60003;BMP280;46322;52.018;8.702;2023-06-22T22:56:21;99787.59;;;23.10
60003;BMP280;46322;52.018;8.702;2023-06-22T23:01:21;99778.69;;;23.29
60003;BMP280;46322;52.018;8.702;2023-06-22T23:06:21;99765.19;;;23.29
60003;BMP280;46322;52.018;8.702;2023-06-22T23:11:22;99752.09;;;23.44
60003;BMP280;46322;52.018;8.702;2023-06-22T23:16:22;99771.28;;;23.13
60003;BMP280;46322;52.018;8.702;2023-06-22T23:21:22;99771.66;;;22.92
60003;BMP280;46322;52.018;8.702;2023-06-22T23:26:23;99772.81;;;22.94
60003;BMP280;46322;52.018;8.702;2023-06-22T23:31:23;99764.66;;;22.98
60003;BMP280;46322;52.018;8.702;2023-06-22T23:36:23;99761.03;;;23.05
60003;BMP280;46322;52.018;8.702;2023-06-22T23:41:23;99769.53;;;23.03
60003;BMP280;46322;52.018;8.702;2023-06-22T23:46:23;99768.34;;;22.84
60003;BMP280;46322;52.018;8.702;2023-06-22T23:51:23;99783.88;;;23.00
60003;BMP280;46322;52.018;8.702;2023-06-22T23:56:23;99784.22;;;22.82
